Asian Trader — P3LC9 — position and weather

sailwx.info

Track history (hours):
 
Tides and Currents Weather Stations Pressure Air Temp Water Temp Dewpoint Dewpoint Depression Visibility Wind Speed Wind Dir Waves Ship Positions

Asian Trader

Last reported at 2018-Apr-16 12:06 UTC. Time now 2018-Apr-22 14:31 UTC.
Position N 16°20' W 061°58'.

Length 148 m; draft 8.3 m.

Type: Ship (hazmat cat A). MMSI: 210565000.

Date/timePositionNaut miles runAvg speedWind from/ knotsBaromVisibWave heightAir tempDewpointWater temp
2018-Apr-16 12:06N 16°20' W 061°58'514.5
2018-Apr-16 11:46N 16°25' W 061°58'414.2
2018-Apr-16 11:30N 16°28' W 061°58'714.0
2018-Apr-16 11:00N 16°35' W 061°58'714.1
2018-Apr-16 10:31N 16°42' W 061°58'714.5
2018-Apr-16 10:00N 16°50' W 061°59'714.5
2018-Apr-16 09:30N 16°57' W 061°59'714.8
2018-Apr-16 09:00N 17°04' W 061°59'611.8
2018-Apr-16 08:31N 17°09' W 061°55'4 7.9
2018-Apr-16 08:00N 17°08' W 061°51'0 0.0
2018-Apr-16 07:28N 17°08' W 061°51'0 0.0
2018-Apr-16 06:58N 17°08' W 061°51'0 0.0
2018-Apr-16 06:28N 17°08' W 061°51'0 0.0
2018-Apr-16 05:59N 17°08' W 061°51'0 0.0
2018-Apr-16 05:29N 17°08' W 061°51'0 0.0
2018-Apr-16 04:59N 17°08' W 061°51'0 0.0
2018-Apr-16 04:29N 17°08' W 061°51'0 0.0
2018-Apr-16 03:59N 17°08' W 061°51'0 0.0
2018-Apr-16 03:29N 17°08' W 061°51'0 0.0
2018-Apr-16 02:59N 17°08' W 061°51'0 0.0
2018-Apr-16 02:29N 17°08' W 061°51'0 0.0
2018-Apr-16 01:59N 17°08' W 061°51'0 0.0
2018-Apr-16 01:30N 17°08' W 061°51'0 0.2
2018-Apr-16 01:00N 17°07' W 061°51'2 3.8
2018-Apr-16 00:31N 17°08' W 061°53'510.7
2018-Apr-16 00:00N 17°11' W 061°58'714.6
2018-Apr-15 23:30N 17°15' W 062°04'714.3
2018-Apr-15 23:00N 17°19' W 062°10'714.0
2018-Apr-15 22:30N 17°23' W 062°16'714.0
2018-Apr-15 22:00N 17°28' W 062°22'3613.5
2018-Apr-15 19:22N 17°48' W 062°53'514.0
2018-Apr-15 18:58N 17°52' W 062°57'714.3
2018-Apr-15 18:30N 17°56' W 063°03'5 8.9
2018-Apr-15 17:58N 18°00' W 063°03'0 0.4
2018-Apr-15 17:14N 18°00' W 063°03'0 0.0
2018-Apr-15 16:56N 18°00' W 063°03'0 0.0
2018-Apr-15 16:30N 18°00' W 063°03'0 0.0
2018-Apr-15 16:00N 18°00' W 063°03'0 0.0
2018-Apr-15 13:18N 18°00' W 063°03'1 4.4
2018-Apr-15 12:59N 18°00' W 063°04'712.6
2018-Apr-15 12:27N 18°01' W 063°11'714.4
2018-Apr-15 11:59N 18°05' W 063°16'714.4
2018-Apr-15 11:30N 18°10' W 063°22'  
2018-Apr-12 08:25N 25°58' W 079°39'614.4
2018-Apr-12 08:00N 25°55' W 079°45'713.5
2018-Apr-12 07:30N 25°52' W 079°51'713.7
2018-Apr-12 07:00N 25°49' W 079°58'613.1
2018-Apr-12 06:30N 25°46' W 080°04'4 8.6
2018-Apr-12 06:00N 25°46' W 080°09'1 2.4
2018-Apr-12 05:28N 25°46' W 080°10'0 0.0
2018-Apr-12 04:58N 25°46' W 080°10'0 0.0
2018-Apr-12 04:28N 25°46' W 080°10'0 0.0
2018-Apr-12 03:55N 25°46' W 080°10'0 0.0
2018-Apr-12 03:28N 25°46' W 080°10'0 0.0
2018-Apr-12 02:58N 25°46' W 080°10'0 0.0
2018-Apr-12 02:25N 25°46' W 080°10'0 0.0
2018-Apr-12 01:58N 25°46' W 080°10'0 0.0
2018-Apr-12 01:30N 25°46' W 080°10'0 0.0
2018-Apr-12 01:00N 25°46' W 080°10'0 0.0
2018-Apr-12 00:30N 25°46' W 080°10'0 0.0
2018-Apr-12 00:00N 25°46' W 080°10'0 0.0
2018-Apr-11 23:27N 25°46' W 080°10'0 0.0
2018-Apr-11 22:57N 25°46' W 080°10'0 0.0
2018-Apr-11 22:30N 25°46' W 080°10'0 0.0
2018-Apr-11 22:00N 25°46' W 080°10'0 0.0
2018-Apr-11 21:30N 25°46' W 080°10'0 0.0
2018-Apr-11 21:00N 25°46' W 080°10'0 0.0
2018-Apr-11 20:27N 25°46' W 080°10'0 0.0
2018-Apr-11 20:00N 25°46' W 080°10'0 0.0
2018-Apr-11 19:30N 25°46' W 080°10'0 0.0
2018-Apr-11 18:57N 25°46' W 080°10'0 0.0
2018-Apr-11 18:27N 25°46' W 080°10'0 0.0
2018-Apr-11 17:59N 25°46' W 080°10'0 0.0
2018-Apr-11 17:26N 25°46' W 080°10'0 0.0
2018-Apr-11 16:56N 25°46' W 080°10'0 0.0
2018-Apr-11 16:29N 25°46' W 080°10'0 0.0
2018-Apr-11 15:59N 25°46' W 080°10'0 0.0
2018-Apr-11 15:26N 25°46' W 080°10'0 0.0
2018-Apr-11 14:56N 25°46' W 080°10'0 0.0
2018-Apr-11 14:26N 25°46' W 080°10'0 0.0
2018-Apr-11 13:59N 25°46' W 080°10'0 0.0
2018-Apr-11 13:29N 25°46' W 080°10'0 0.0
2018-Apr-11 13:00N 25°46' W 080°10'1 2.4
2018-Apr-11 12:30N 25°46' W 080°09'5 9.8
2018-Apr-11 12:00N 25°46' W 080°03'5 9.9
2018-Apr-11 11:30N 25°43' W 079°60'612.5
2018-Apr-11 11:00N 25°37' W 079°57'612.9
2018-Apr-11 10:30N 25°31' W 079°54'  
Track history (hours):
 
Tides and Currents Weather Stations Pressure Air Temp Water Temp Dewpoint Dewpoint Depression Visibility Wind Speed Wind Dir Waves Ship Positions

Asian Trader

Last reported at 2018-Apr-16 12:06 UTC. Time now 2018-Apr-22 14:31 UTC.
Position N 16°20' W 061°58'.

Length 148 m; draft 8.3 m.

Type: Ship (hazmat cat A). MMSI: 210565000.

Date/timePositionNaut miles runAvg speedWind from/ knotsBaromVisibWave heightAir tempDewpointWater temp
2018-Apr-16 12:06N 16°20' W 061°58'514.5
2018-Apr-16 11:46N 16°25' W 061°58'414.2
2018-Apr-16 11:30N 16°28' W 061°58'714.0
2018-Apr-16 11:00N 16°35' W 061°58'714.1
2018-Apr-16 10:31N 16°42' W 061°58'714.5
2018-Apr-16 10:00N 16°50' W 061°59'714.5
2018-Apr-16 09:30N 16°57' W 061°59'714.8
2018-Apr-16 09:00N 17°04' W 061°59'611.8
2018-Apr-16 08:31N 17°09' W 061°55'4 7.9
2018-Apr-16 08:00N 17°08' W 061°51'0 0.0
2018-Apr-16 07:28N 17°08' W 061°51'0 0.0
2018-Apr-16 06:58N 17°08' W 061°51'0 0.0
2018-Apr-16 06:28N 17°08' W 061°51'0 0.0
2018-Apr-16 05:59N 17°08' W 061°51'0 0.0
2018-Apr-16 05:29N 17°08' W 061°51'0 0.0
2018-Apr-16 04:59N 17°08' W 061°51'0 0.0
2018-Apr-16 04:29N 17°08' W 061°51'0 0.0
2018-Apr-16 03:59N 17°08' W 061°51'0 0.0
2018-Apr-16 03:29N 17°08' W 061°51'0 0.0
2018-Apr-16 02:59N 17°08' W 061°51'0 0.0
2018-Apr-16 02:29N 17°08' W 061°51'0 0.0
2018-Apr-16 01:59N 17°08' W 061°51'0 0.0
2018-Apr-16 01:30N 17°08' W 061°51'0 0.2
2018-Apr-16 01:00N 17°07' W 061°51'2 3.8
2018-Apr-16 00:31N 17°08' W 061°53'510.7
2018-Apr-16 00:00N 17°11' W 061°58'714.6
2018-Apr-15 23:30N 17°15' W 062°04'714.3
2018-Apr-15 23:00N 17°19' W 062°10'714.0
2018-Apr-15 22:30N 17°23' W 062°16'714.0
2018-Apr-15 22:00N 17°28' W 062°22'3613.5
2018-Apr-15 19:22N 17°48' W 062°53'514.0
2018-Apr-15 18:58N 17°52' W 062°57'714.3
2018-Apr-15 18:30N 17°56' W 063°03'5 8.9
2018-Apr-15 17:58N 18°00' W 063°03'0 0.4
2018-Apr-15 17:14N 18°00' W 063°03'0 0.0
2018-Apr-15 16:56N 18°00' W 063°03'0 0.0
2018-Apr-15 16:30N 18°00' W 063°03'0 0.0
2018-Apr-15 16:00N 18°00' W 063°03'0 0.0
2018-Apr-15 13:18N 18°00' W 063°03'1 4.4
2018-Apr-15 12:59N 18°00' W 063°04'712.6
2018-Apr-15 12:27N 18°01' W 063°11'714.4
2018-Apr-15 11:59N 18°05' W 063°16'714.4
2018-Apr-15 11:30N 18°10' W 063°22'  
2018-Apr-12 08:25N 25°58' W 079°39'614.4
2018-Apr-12 08:00N 25°55' W 079°45'713.5
2018-Apr-12 07:30N 25°52' W 079°51'713.7
2018-Apr-12 07:00N 25°49' W 079°58'613.1
2018-Apr-12 06:30N 25°46' W 080°04'4 8.6
2018-Apr-12 06:00N 25°46' W 080°09'1 2.4
2018-Apr-12 05:28N 25°46' W 080°10'0 0.0
2018-Apr-12 04:58N 25°46' W 080°10'0 0.0
2018-Apr-12 04:28N 25°46' W 080°10'0 0.0
2018-Apr-12 03:55N 25°46' W 080°10'0 0.0
2018-Apr-12 03:28N 25°46' W 080°10'0 0.0
2018-Apr-12 02:58N 25°46' W 080°10'0 0.0
2018-Apr-12 02:25N 25°46' W 080°10'0 0.0
2018-Apr-12 01:58N 25°46' W 080°10'0 0.0
2018-Apr-12 01:30N 25°46' W 080°10'0 0.0
2018-Apr-12 01:00N 25°46' W 080°10'0 0.0
2018-Apr-12 00:30N 25°46' W 080°10'0 0.0
2018-Apr-12 00:00N 25°46' W 080°10'0 0.0
2018-Apr-11 23:27N 25°46' W 080°10'0 0.0
2018-Apr-11 22:57N 25°46' W 080°10'0 0.0
2018-Apr-11 22:30N 25°46' W 080°10'0 0.0
2018-Apr-11 22:00N 25°46' W 080°10'0 0.0
2018-Apr-11 21:30N 25°46' W 080°10'0 0.0
2018-Apr-11 21:00N 25°46' W 080°10'0 0.0
2018-Apr-11 20:27N 25°46' W 080°10'0 0.0
2018-Apr-11 20:00N 25°46' W 080°10'0 0.0
2018-Apr-11 19:30N 25°46' W 080°10'0 0.0
2018-Apr-11 18:57N 25°46' W 080°10'0 0.0
2018-Apr-11 18:27N 25°46' W 080°10'0 0.0
2018-Apr-11 17:59N 25°46' W 080°10'0 0.0
2018-Apr-11 17:26N 25°46' W 080°10'0 0.0
2018-Apr-11 16:56N 25°46' W 080°10'0 0.0
2018-Apr-11 16:29N 25°46' W 080°10'0 0.0
2018-Apr-11 15:59N 25°46' W 080°10'0 0.0
2018-Apr-11 15:26N 25°46' W 080°10'0 0.0
2018-Apr-11 14:56N 25°46' W 080°10'0 0.0
2018-Apr-11 14:26N 25°46' W 080°10'0 0.0
2018-Apr-11 13:59N 25°46' W 080°10'0 0.0
2018-Apr-11 13:29N 25°46' W 080°10'0 0.0
2018-Apr-11 13:00N 25°46' W 080°10'1 2.4
2018-Apr-11 12:30N 25°46' W 080°09'5 9.8
2018-Apr-11 12:00N 25°46' W 080°03'5 9.9
2018-Apr-11 11:30N 25°43' W 079°60'612.5
2018-Apr-11 11:00N 25°37' W 079°57'612.9
2018-Apr-11 10:30N 25°31' W 079°54'  

Dump ship's entire track history